Time;durP1;ratioP1;P1;durP2;ratioP2;P2;SDS_P1;SDS_P2;PMS_P1;PMS_P2;Temp;Humidity;BMP_temperature;BMP_pressure;BME280_temperature;BME280_humidity;BME280_pressure;Samples;Min_cycle;Max_cycle;Signal;HPM_P1;HPM_P2
2022/08/23 00:01:17;;;;;;;1.03;1.03;;;25.00;64.70;;;;;;5067665;28;44012;-74
2022/08/23 00:03:49;;;;;;;1.30;1.30;;;24.90;65.30;;;;;;5066639;28;43770;-74
2022/08/23 00:06:17;;;;;;;1.17;1.17;;;24.90;65.40;;;;;;5067734;28;43960;-74
2022/08/23 00:08:45;;;;;;;1.20;1.20;;;24.90;65.20;;;;;;5065772;28;44054;-74
2022/08/23 00:11:26;;;;;;;1.20;1.20;;;24.90;64.90;;;;;;5067769;28;43999;-74
2022/08/23 00:13:54;;;;;;;1.10;1.10;;;24.90;65.50;;;;;;5066694;28;44002;-74
2022/08/23 00:16:22;;;;;;;1.20;1.20;;;24.90;65.80;;;;;;5065742;28;45527;-74
2022/08/23 00:18:51;;;;;;;1.20;1.20;;;24.90;65.50;;;;;;5066762;28;43969;-73
2022/08/23 00:21:19;;;;;;;1.10;1.10;;;25.00;65.10;;;;;;5067233;28;43403;-73
2022/08/23 00:23:47;;;;;;;1.20;1.20;;;25.10;65.40;;;;;;5066531;28;43922;-74
2022/08/23 00:26:16;;;;;;;1.20;1.20;;;25.20;64.40;;;;;;5067142;28;43419;-73
2022/08/23 00:28:44;;;;;;;1.20;1.20;;;25.20;64.30;;;;;;5064830;28;43458;-74
2022/08/23 00:31:12;;;;;;;1.00;1.00;;;25.10;64.30;;;;;;5067269;28;43835;-74
2022/08/23 00:33:40;;;;;;;1.03;1.03;;;25.10;64.90;;;;;;5064860;28;47021;-74
2022/08/23 00:36:10;;;;;;;1.10;1.10;;;25.10;64.90;;;;;;5066437;28;43927;-74
2022/08/23 00:38:38;;;;;;;1.10;1.10;;;25.00;64.80;;;;;;5065091;28;43924;-73
2022/08/23 00:41:06;;;;;;;1.10;1.10;;;25.00;64.60;;;;;;5066912;28;44484;-74
2022/08/23 00:49:13;;;;;;;1.00;1.00;;;25.00;65.20;;;;;;5065415;28;44082;-74
2022/08/23 00:51:46;;;;;;;1.00;1.00;;;25.10;64.80;;;;;;5066446;28;44105;-74
2022/08/23 00:54:19;;;;;;;1.10;1.10;;;25.20;64.50;;;;;;5065067;28;45729;-75
2022/08/23 00:56:48;;;;;;;1.03;1.03;;;25.20;64.40;;;;;;5065927;28;44070;-73
2022/08/23 00:59:16;;;;;;;1.20;1.20;;;25.10;64.30;;;;;;5066434;28;44003;-74
2022/08/23 01:01:44;;;;;;;1.10;1.10;;;25.10;64.80;;;;;;5067638;28;43838;-75
2022/08/23 01:04:12;;;;;;;1.10;1.10;;;25.00;64.90;;;;;;5067087;28;44648;-75
2022/08/23 01:06:44;;;;;;;1.10;1.10;;;25.10;65.00;;;;;;5064884;28;45085;-74
2022/08/23 01:09:13;;;;;;;1.10;1.10;;;25.00;64.80;;;;;;5065419;28;43470;-75
2022/08/23 01:11:42;;;;;;;1.00;1.00;;;25.00;65.40;;;;;;5065318;28;43883;-74
2022/08/23 01:14:12;;;;;;;1.13;1.13;;;24.90;65.50;;;;;;5067191;28;43938;-74
2022/08/23 01:16:44;;;;;;;1.10;1.10;;;24.90;65.50;;;;;;5064593;28;43949;-74
2022/08/23 01:19:16;;;;;;;1.00;1.00;;;24.90;65.20;;;;;;5080904;27;43971;-74
2022/08/23 01:21:49;;;;;;;1.00;1.00;;;24.90;65.40;;;;;;5064839;28;44119;-74
2022/08/23 01:24:22;;;;;;;1.10;1.10;;;24.90;65.90;;;;;;5065311;28;45760;-74
2022/08/23 01:27:11;;;;;;;1.17;1.17;;;25.00;65.80;;;;;;5066373;28;43999;-75
2022/08/23 01:29:40;;;;;;;0.90;0.90;;;25.00;65.40;;;;;;5065982;28;43862;-74
2022/08/23 01:32:08;;;;;;;1.10;1.10;;;25.10;64.90;;;;;;5065314;28;44274;-75
2022/08/23 01:34:37;;;;;;;1.00;1.00;;;25.20;64.60;;;;;;5064875;28;45745;-75
2022/08/23 01:37:12;;;;;;;0.90;0.90;;;25.20;64.40;;;;;;5065197;28;44452;-74
2022/08/23 01:39:42;;;;;;;1.10;1.10;;;25.10;64.40;;;;;;5065658;28;43986;-74
2022/08/23 01:42:11;;;;;;;1.10;1.10;;;25.10;65.00;;;;;;5064997;28;43614;-74
2022/08/23 01:44:39;;;;;;;0.90;0.90;;;25.10;65.00;;;;;;5064266;28;44000;-75
2022/08/23 01:47:07;;;;;;;1.10;1.10;;;25.00;64.80;;;;;;5066311;28;43773;-75
2022/08/23 01:49:35;;;;;;;1.20;1.20;;;25.00;64.80;;;;;;5065223;28;43994;-74
2022/08/23 01:52:04;;;;;;;1.10;1.10;;;24.90;65.40;;;;;;5064823;28;43403;-75
2022/08/23 01:54:32;;;;;;;1.10;1.10;;;25.00;65.70;;;;;;5064751;28;44057;-74
2022/08/23 01:57:01;;;;;;;1.30;1.30;;;25.00;65.30;;;;;;5066002;28;43371;-75
2022/08/23 01:59:30;;;;;;;1.10;1.10;;;25.10;64.90;;;;;;5064818;28;43999;-75
2022/08/23 02:01:59;;;;;;;1.10;1.10;;;25.20;64.60;;;;;;5064172;28;43625;-75
2022/08/23 02:04:27;;;;;;;1.10;1.10;;;25.20;64.40;;;;;;5064599;28;45398;-74
2022/08/23 02:06:55;;;;;;;1.00;1.00;;;25.10;64.30;;;;;;5065835;28;43977;-74
2022/08/23 02:09:24;;;;;;;1.03;1.03;;;25.10;64.70;;;;;;5064595;28;44071;-75
2022/08/23 02:11:57;;;;;;;1.03;1.03;;;25.00;65.10;;;;;;5064679;28;44075;-74
2022/08/23 02:14:27;;;;;;;1.00;1.00;;;25.00;65.10;;;;;;5066191;28;43984;-75
2022/08/23 02:16:58;;;;;;;1.00;1.00;;;25.00;65.00;;;;;;5063795;28;45995;-74
2022/08/23 02:19:35;;;;;;;1.10;1.10;;;25.00;65.40;;;;;;5064359;28;44021;-74
2022/08/23 02:22:05;;;;;;;1.00;1.00;;;24.90;65.70;;;;;;5064668;28;43485;-75
2022/08/23 02:24:33;;;;;;;1.00;1.00;;;24.90;65.50;;;;;;5064436;28;45659;-74
2022/08/23 02:27:03;;;;;;;0.87;0.87;;;24.90;65.30;;;;;;5063665;28;43944;-75
2022/08/23 02:29:38;;;;;;;0.90;0.90;;;24.90;65.80;;;;;;5064416;28;44077;-75
2022/08/23 02:32:09;;;;;;;1.13;1.13;;;24.80;65.90;;;;;;5067203;28;43499;-74
2022/08/23 02:34:38;;;;;;;1.20;1.20;;;24.90;65.90;;;;;;5067448;28;45665;-74
2022/08/23 02:37:07;;;;;;;1.47;1.47;;;24.90;65.60;;;;;;5067861;28;43830;-75
2022/08/23 02:39:35;;;;;;;1.03;1.03;;;24.80;66.20;;;;;;5069570;28;43417;-76
2022/08/23 02:42:06;;;;;;;1.10;1.10;;;24.80;66.10;;;;;;5068011;28;44173;-74
2022/08/23 02:44:37;;;;;;;0.90;0.90;;;24.90;66.00;;;;;;5067762;28;46325;-74
2022/08/23 02:47:07;;;;;;;1.20;1.20;;;25.00;65.70;;;;;;5069397;28;43757;-74
2022/08/23 02:49:37;;;;;;;1.10;1.10;;;25.10;65.10;;;;;;5068049;28;44046;-74
2022/08/23 02:52:06;;;;;;;1.00;1.00;;;25.20;64.80;;;;;;5067912;28;43544;-75
2022/08/23 02:54:35;;;;;;;1.27;1.27;;;25.20;64.50;;;;;;5067622;28;45743;-74
2022/08/23 02:57:03;;;;;;;1.20;1.20;;;25.10;64.50;;;;;;5067700;28;44449;-75
2022/08/23 02:59:31;;;;;;;1.10;1.10;;;25.10;64.90;;;;;;5067395;28;43989;-75
2022/08/23 03:02:01;;;;;;;1.00;1.00;;;25.00;65.20;;;;;;5067314;28;43444;-75
2022/08/23 03:04:35;;;;;;;1.10;1.10;;;25.00;65.20;;;;;;5067494;28;43964;-74
2022/08/23 03:07:03;;;;;;;1.10;1.10;;;25.00;65.10;;;;;;5069264;28;43447;-74
2022/08/23 03:09:31;;;;;;;1.30;1.30;;;25.00;65.50;;;;;;5069057;28;44024;-75
2022/08/23 03:11:59;;;;;;;1.10;1.10;;;24.90;65.80;;;;;;5069111;28;44062;-74
2022/08/23 03:14:27;;;;;;;1.20;1.20;;;25.00;65.70;;;;;;5067249;28;44051;-75
2022/08/23 03:16:58;;;;;;;1.03;1.03;;;25.00;65.30;;;;;;5066382;28;44794;-75
2022/08/23 03:19:28;;;;;;;0.97;0.97;;;25.00;65.10;;;;;;5067372;28;44050;-74
2022/08/23 03:21:56;;;;;;;1.20;1.20;;;25.00;64.90;;;;;;5068529;28;44090;-75
2022/08/23 03:24:28;;;;;;;1.00;1.00;;;25.00;65.40;;;;;;5067158;28;45657;-74
2022/08/23 03:26:56;;;;;;;1.00;1.00;;;25.00;65.50;;;;;;5066006;28;44412;-74
2022/08/23 03:29:24;;;;;;;1.03;1.03;;;25.00;65.40;;;;;;5067047;28;43902;-75
2022/08/23 03:31:59;;;;;;;0.97;0.97;;;25.00;65.20;;;;;;5068218;28;43897;-73
2022/08/23 03:34:30;;;;;;;1.10;1.10;;;24.90;65.50;;;;;;5066455;28;44054;-75
2022/08/23 03:36:58;;;;;;;1.10;1.10;;;24.90;65.80;;;;;;5066010;28;43724;-74
2022/08/23 03:39:27;;;;;;;1.07;1.07;;;24.90;65.80;;;;;;5067227;28;44030;-75
2022/08/23 03:41:57;;;;;;;1.20;1.20;;;24.90;65.60;;;;;;5066220;28;44070;-75
2022/08/23 03:44:30;;;;;;;1.00;1.00;;;24.80;65.60;;;;;;5066925;28;44097;-75
2022/08/23 03:46:58;;;;;;;0.83;0.83;;;24.80;66.10;;;;;;5067970;28;43921;-74
2022/08/23 03:49:27;;;;;;;1.00;1.00;;;24.90;66.00;;;;;;5067210;28;44063;-75
2022/08/23 03:51:59;;;;;;;1.10;1.10;;;25.00;65.50;;;;;;5067284;28;43881;-73
2022/08/23 03:54:29;;;;;;;1.10;1.10;;;25.10;65.00;;;;;;5066747;28;45011;-74
2022/08/23 03:56:59;;;;;;;1.20;1.20;;;25.10;64.70;;;;;;5066642;28;44793;-74
2022/08/23 03:59:31;;;;;;;1.00;1.00;;;25.10;64.60;;;;;;5066956;28;43861;-73
2022/08/23 04:02:00;;;;;;;1.10;1.10;;;25.10;64.70;;;;;;5067251;28;43941;-74
2022/08/23 04:04:30;;;;;;;1.07;1.07;;;25.00;66.00;;;;;;5066572;28;46003;-74
2022/08/23 04:07:19;;;;;;;1.10;1.10;;;25.00;65.40;;;;;;5065005;28;43948;-75
2022/08/23 04:09:50;;;;;;;1.20;1.20;;;25.00;65.30;;;;;;5066493;28;43759;-75
2022/08/23 04:12:23;;;;;;;0.90;0.90;;;24.90;65.20;;;;;;5066609;28;44016;-75
2022/08/23 04:14:52;;;;;;;1.00;1.00;;;24.90;65.90;;;;;;5067061;28;45000;-74
2022/08/23 04:17:21;;;;;;;1.07;1.07;;;24.90;65.90;;;;;;5066583;28;44037;-74
2022/08/23 04:19:51;;;;;;;1.20;1.20;;;24.90;65.70;;;;;;5065904;28;43944;-74
2022/08/23 04:22:21;;;;;;;1.20;1.20;;;24.80;65.40;;;;;;5066151;28;43933;-75
2022/08/23 04:24:49;;;;;;;0.93;0.93;;;24.80;66.10;;;;;;5065703;28;45664;-74
2022/08/23 04:27:17;;;;;;;0.80;0.80;;;24.80;66.20;;;;;;5065743;28;44658;-75
2022/08/23 04:29:46;;;;;;;1.03;1.03;;;24.90;65.90;;;;;;5065378;28;43868;-75
2022/08/23 04:32:14;;;;;;;1.07;1.07;;;25.00;65.40;;;;;;5066318;28;43944;-75
2022/08/23 04:34:57;;;;;;;1.30;1.30;;;25.10;65.00;;;;;;5065915;28;44067;-75
2022/08/23 04:37:26;;;;;;;1.20;1.10;;;25.10;64.90;;;;;;5066383;28;44515;-75
2022/08/23 04:42:42;;;;;;;0.97;0.97;;;25.00;65.20;;;;;;5085888;28;43933;-74
2022/08/23 04:45:11;;;;;;;1.10;1.10;;;25.00;65.60;;;;;;5085853;28;45476;-75
2022/08/23 04:47:44;;;;;;;1.10;1.10;;;24.90;65.50;;;;;;5085479;28;43569;-73
2022/08/23 04:50:12;;;;;;;1.10;1.10;;;24.90;65.40;;;;;;5073502;28;43419;-74
2022/08/23 04:53:11;;;;;;;1.20;1.20;;;24.90;65.40;;;;;;5069346;28;44010;-76
2022/08/23 04:55:51;;;;;;;1.00;1.00;;;24.80;66.10;;;;;;5080126;28;43947;-74
2022/08/23 04:58:19;;;;;;;1.10;1.10;;;24.80;66.00;;;;;;5066029;28;43923;-75
2022/08/23 05:00:49;;;;;;;1.10;1.10;;;24.80;65.60;;;;;;5066032;28;44266;-75
2022/08/23 05:03:23;;;;;;;1.13;1.13;;;24.80;65.90;;;;;;5086659;28;43989;-74
2022/08/23 05:05:52;;;;;;;1.10;1.10;;;24.80;66.50;;;;;;5078552;28;44778;-73
2022/08/23 05:08:25;;;;;;;1.30;1.30;;;24.80;66.10;;;;;;5079618;28;43458;-74
2022/08/23 05:10:53;;;;;;;1.20;1.20;;;24.90;65.80;;;;;;5085619;28;44033;-74
2022/08/23 05:13:21;;;;;;;1.37;1.37;;;25.10;65.30;;;;;;5074457;27;43859;-75
2022/08/23 05:15:51;;;;;;;1.10;1.10;;;25.10;64.80;;;;;;5085504;28;44169;-75
2022/08/23 05:18:21;;;;;;;1.10;1.10;;;25.10;64.90;;;;;;5085309;28;43990;-75
2022/08/23 05:20:50;;;;;;;1.10;1.10;;;25.10;64.90;;;;;;5085305;28;44212;-75
2022/08/23 05:23:18;;;;;;;1.10;1.10;;;25.00;65.40;;;;;;5085884;28;43932;-75
2022/08/23 05:25:57;;;;;;;1.03;1.03;;;25.00;65.40;;;;;;5085390;28;45993;-74
2022/08/23 05:28:34;;;;;;;1.20;1.20;;;25.00;65.20;;;;;;5084726;28;44391;-75
2022/08/23 05:31:06;;;;;;;1.20;1.20;;;24.90;65.30;;;;;;5085096;27;44015;-74
2022/08/23 05:33:51;;;;;;;1.10;1.10;;;24.90;65.80;;;;;;5078607;28;43893;-73
2022/08/23 05:36:39;;;;;;;1.30;1.30;;;24.90;65.80;;;;;;5069104;28;44180;-75
2022/08/23 05:39:24;;;;;;;1.20;1.20;;;24.80;65.40;;;;;;5085275;28;43424;-74
2022/08/23 05:42:06;;;;;;;1.20;1.20;;;24.80;65.90;;;;;;5078676;28;43898;-75
2022/08/23 05:44:36;;;;;;;1.20;1.20;;;24.80;66.10;;;;;;5076897;28;43452;-74
2022/08/23 05:47:06;;;;;;;1.10;1.10;;;24.90;65.80;;;;;;5065802;28;44871;-75
2022/08/23 05:49:47;;;;;;;1.00;1.00;;;25.00;65.30;;;;;;5065445;28;43928;-74
2022/08/23 05:52:16;;;;;;;1.20;1.20;;;25.10;64.90;;;;;;5067979;28;44058;-75
2022/08/23 05:54:44;;;;;;;1.20;1.20;;;25.10;64.70;;;;;;5085129;28;44082;-75
2022/08/23 05:57:34;;;;;;;1.27;1.27;;;25.10;64.60;;;;;;5085330;28;44050;-74
2022/08/23 06:00:02;;;;;;;1.03;1.03;;;25.10;64.70;;;;;;5079358;28;45967;-74
2022/08/23 06:02:31;;;;;;;1.20;1.20;;;25.00;65.20;;;;;;5064967;28;44259;-74
2022/08/23 06:04:59;;;;;;;1.10;1.10;;;25.00;65.30;;;;;;5080918;28;43976;-73
2022/08/23 06:07:28;;;;;;;1.20;1.20;;;24.90;65.10;;;;;;5088362;27;44026;-75
2022/08/23 06:09:56;;;;;;;1.20;1.20;;;24.90;65.10;;;;;;5088239;28;44065;-74
2022/08/23 06:12:27;;;;;;;1.20;1.20;;;24.90;65.90;;;;;;5088644;28;43882;-74
2022/08/23 06:14:56;;;;;;;1.10;1.10;;;24.90;65.80;;;;;;5068932;28;44334;-75
2022/08/23 06:17:24;;;;;;;1.20;1.20;;;25.00;65.40;;;;;;5068702;28;44044;-74
2022/08/23 06:19:53;;;;;;;1.10;1.10;;;25.10;65.00;;;;;;5068372;28;44779;-74
2022/08/23 06:22:26;;;;;;;1.30;1.30;;;25.10;65.00;;;;;;5068690;28;43952;-74
2022/08/23 06:24:54;;;;;;;1.30;1.30;;;25.10;64.80;;;;;;5069257;28;44079;-75
2022/08/23 06:27:40;;;;;;;1.40;1.40;;;25.00;64.70;;;;;;5084148;28;43975;-73
2022/08/23 06:30:10;;;;;;;1.20;1.20;;;25.00;65.40;;;;;;5088111;28;45168;-73
2022/08/23 06:32:46;;;;;;;1.23;1.23;;;24.90;65.50;;;;;;5086240;27;43896;-74
2022/08/23 06:35:32;;;;;;;1.10;1.10;;;24.90;65.30;;;;;;5086717;27;43760;-75
2022/08/23 06:38:25;;;;;;;1.17;1.17;;;24.90;65.10;;;;;;5070911;28;43961;-75
2022/08/23 06:41:13;;;;;;;1.30;1.30;;;24.90;66.00;;;;;;5087619;27;43990;-74
2022/08/23 06:43:52;;;;;;;1.30;1.30;;;24.90;65.80;;;;;;5068785;28;43938;-75
2022/08/23 06:46:32;;;;;;;1.40;1.40;;;25.00;65.30;;;;;;5088541;27;43544;-73
2022/08/23 06:49:04;;;;;;;1.53;1.53;;;25.10;64.80;;;;;;5088732;27;44026;-74
2022/08/23 06:51:32;;;;;;;1.30;1.30;;;25.10;64.80;;;;;;5071186;28;44646;-74
2022/08/23 06:54:15;;;;;;;1.20;1.20;;;25.10;64.70;;;;;;5074615;28;43966;-74
2022/08/23 06:56:54;;;;;;;1.40;1.40;;;25.00;64.90;;;;;;5080079;28;43987;-74
2022/08/23 06:59:28;;;;;;;1.13;1.13;;;25.00;65.40;;;;;;5087249;28;44333;-74
2022/08/23 07:02:28;;;;;;;1.40;1.40;;;25.00;65.40;;;;;;5087679;28;43992;-75
2022/08/23 07:05:15;;;;;;;1.30;1.30;;;24.90;65.10;;;;;;5085009;28;43970;-74
2022/08/23 07:08:06;;;;;;;1.10;1.10;;;24.90;65.80;;;;;;5070029;28;44138;-74
2022/08/23 07:10:35;;;;;;;1.40;1.40;;;24.80;65.90;;;;;;5079016;28;45604;-73
2022/08/23 07:13:03;;;;;;;1.20;1.20;;;24.80;65.60;;;;;;5069459;28;44451;-74
2022/08/23 07:15:32;;;;;;;1.33;1.33;;;24.80;65.20;;;;;;5068149;28;44045;-75
2022/08/23 07:18:02;;;;;;;1.37;1.37;;;24.80;66.00;;;;;;5067431;28;44010;-73
2022/08/23 07:20:30;;;;;;;1.20;1.20;;;24.80;66.20;;;;;;5067891;28;45034;-73
2022/08/23 07:22:58;;;;;;;1.20;1.20;;;24.80;66.00;;;;;;5068703;28;43881;-74
2022/08/23 07:25:27;;;;;;;1.10;1.10;;;24.80;65.60;;;;;;5073417;28;43934;-74
2022/08/23 07:28:01;;;;;;;1.13;1.13;;;24.80;65.80;;;;;;5086912;28;43885;-74
2022/08/23 07:30:29;;;;;;;1.20;1.20;;;24.70;66.40;;;;;;5081167;28;44054;-74
2022/08/23 07:32:58;;;;;;;1.47;1.47;;;24.80;66.10;;;;;;5067494;28;44851;-75
2022/08/23 07:35:29;;;;;;;1.20;1.20;;;24.90;65.70;;;;;;5067644;28;43984;-74
2022/08/23 07:37:59;;;;;;;1.30;1.30;;;25.00;65.20;;;;;;5087577;28;43971;-74
2022/08/23 07:40:32;;;;;;;1.47;1.47;;;25.10;64.90;;;;;;5086794;27;43944;-74
2022/08/23 07:43:06;;;;;;;1.40;1.40;;;25.10;64.80;;;;;;5086566;28;44314;-74
2022/08/23 07:45:35;;;;;;;1.27;1.27;;;25.10;64.70;;;;;;5085393;27;43871;-74
2022/08/23 07:48:05;;;;;;;1.20;1.20;;;25.00;65.10;;;;;;5068193;28;44011;-75
2022/08/23 07:50:41;;;;;;;1.10;1.10;;;25.00;65.40;;;;;;5077084;28;44030;-73
2022/08/23 07:53:26;;;;;;;1.10;1.10;;;25.00;65.40;;;;;;5081426;27;43972;-75
2022/08/23 07:56:07;;;;;;;1.40;1.40;;;24.90;65.10;;;;;;5067825;28;43983;-74
2022/08/23 07:59:01;;;;;;;2.33;1.60;;;24.80;65.90;;;;;;5067759;28;43447;-74
2022/08/23 08:01:40;;;;;;;1.80;1.80;;;24.90;66.00;;;;;;5079337;28;46541;-74
2022/08/23 08:04:08;;;;;;;1.90;1.80;;;24.90;65.50;;;;;;5086899;28;45061;-74
2022/08/23 08:06:41;;;;;;;1.63;1.60;;;25.00;65.40;;;;;;5088376;27;43901;-74
2022/08/23 08:09:09;;;;;;;2.45;2.00;;;25.00;65.30;;;;;;5067490;28;44316;-74
2022/08/23 08:11:37;;;;;;;2.33;1.87;;;25.00;65.30;;;;;;5073895;28;45484;-73
2022/08/23 08:14:07;;;;;;;2.00;1.70;;;24.90;65.80;;;;;;5087963;28;43947;-73
2022/08/23 08:16:39;;;;;;;1.70;1.60;;;24.90;65.80;;;;;;5066578;28;43904;-73
2022/08/23 08:19:11;;;;;;;2.13;2.00;;;24.90;65.70;;;;;;5067357;28;43991;-74
2022/08/23 08:22:15;;;;;;;1.70;1.70;;;24.80;65.30;;;;;;5067915;28;44549;-73
2022/08/23 08:25:02;;;;;;;1.90;1.80;;;24.80;66.20;;;;;;5065496;28;43893;-74
2022/08/23 08:27:31;;;;;;;1.90;1.80;;;24.80;66.10;;;;;;5066574;28;44353;-74
2022/08/23 08:30:02;;;;;;;2.10;2.00;;;24.80;65.80;;;;;;5066342;28;44248;-74
2022/08/23 08:32:30;;;;;;;1.97;1.87;;;24.80;65.60;;;;;;5066876;28;45746;-73
2022/08/23 08:34:58;;;;;;;1.50;1.50;;;24.70;66.30;;;;;;5069049;28;44076;-74
2022/08/23 08:37:28;;;;;;;1.93;1.83;;;24.70;66.40;;;;;;5085936;28;44014;-74
2022/08/23 08:39:56;;;;;;;1.77;1.77;;;24.80;66.00;;;;;;5071034;28;43988;-74
2022/08/23 08:42:46;;;;;;;1.57;1.57;;;25.00;65.70;;;;;;5076213;28;44182;-74
2022/08/23 08:45:17;;;;;;;1.93;1.83;;;25.00;65.30;;;;;;5084312;28;44439;-74
2022/08/23 08:47:48;;;;;;;1.80;1.80;;;25.00;65.20;;;;;;5086470;28;43901;-74
2022/08/23 08:50:19;;;;;;;1.97;1.93;;;25.00;65.10;;;;;;5067174;28;44350;-74
2022/08/23 08:52:52;;;;;;;2.13;1.97;;;25.00;65.60;;;;;;5079934;28;45302;-74
2022/08/23 08:55:38;;;;;;;2.03;1.93;;;24.90;65.70;;;;;;5086010;28;44030;-75
2022/08/23 08:58:07;;;;;;;1.90;1.80;;;24.90;65.70;;;;;;5085975;28;43988;-74
2022/08/23 09:00:37;;;;;;;1.83;1.73;;;24.80;65.30;;;;;;5086301;28;43974;-74
2022/08/23 09:03:09;;;;;;;1.87;1.77;;;24.80;66.10;;;;;;5085704;27;45401;-75
2022/08/23 09:05:39;;;;;;;1.80;1.70;;;24.80;66.20;;;;;;5068427;28;44553;-73
2022/08/23 09:08:15;;;;;;;1.33;1.33;;;24.80;66.00;;;;;;5078020;28;43916;-73
2022/08/23 09:11:01;;;;;;;1.57;1.57;;;24.70;65.70;;;;;;5086126;27;43887;-74
2022/08/23 09:13:45;;;;;;;1.50;1.50;;;24.70;66.20;;;;;;5085842;27;43981;-75
2022/08/23 09:16:20;;;;;;;1.80;1.70;;;24.70;66.50;;;;;;5085711;28;45179;-73
2022/08/23 09:18:49;;;;;;;2.07;1.93;;;24.80;67.00;;;;;;5085869;28;43894;-75
2022/08/23 09:21:17;;;;;;;1.70;1.70;;;24.90;65.80;;;;;;5081263;28;44209;-74
2022/08/23 09:23:47;;;;;;;1.83;1.80;;;25.00;65.30;;;;;;5065871;28;46561;-75
2022/08/23 09:26:36;;;;;;;1.80;1.80;;;25.10;65.10;;;;;;5072834;28;43400;-74
2022/08/23 09:29:07;;;;;;;1.70;1.70;;;25.10;65.00;;;;;;5067262;28;44011;-75
2022/08/23 09:31:36;;;;;;;1.90;1.80;;;25.00;65.80;;;;;;5085920;28;44033;-74
2022/08/23 09:34:04;;;;;;;1.63;1.63;;;25.00;65.60;;;;;;5083889;28;43818;-74
2022/08/23 09:36:48;;;;;;;1.57;1.57;;;24.90;65.60;;;;;;5069687;28;43940;-75
2022/08/23 09:39:28;;;;;;;1.53;1.53;;;24.90;65.40;;;;;;5085089;28;43935;-74
2022/08/23 09:42:00;;;;;;;1.60;1.60;;;24.80;65.50;;;;;;5072780;28;44084;-75
2022/08/23 09:44:34;;;;;;;1.70;1.60;;;24.80;66.20;;;;;;5086574;28;43944;-74
2022/08/23 09:47:08;;;;;;;1.50;1.50;;;24.80;65.90;;;;;;5069452;28;46130;-73
2022/08/23 09:49:41;;;;;;;1.70;1.70;;;24.80;65.70;;;;;;5080299;28;43924;-74
2022/08/23 09:52:14;;;;;;;1.70;1.60;;;24.70;65.60;;;;;;5070559;28;43965;-75
2022/08/23 09:54:58;;;;;;;1.70;1.70;;;24.70;66.40;;;;;;5065473;28;44975;-75
2022/08/23 09:57:27;;;;;;;1.70;1.70;;;24.70;66.30;;;;;;5076750;28;44126;-74
2022/08/23 09:59:59;;;;;;;1.80;1.80;;;24.70;66.00;;;;;;5084671;28;43958;-75
2022/08/23 10:02:31;;;;;;;1.57;1.57;;;24.70;65.80;;;;;;5083472;27;43995;-74
2022/08/23 10:05:18;;;;;;;1.80;1.70;;;24.70;66.50;;;;;;5084909;27;43952;-75
2022/08/23 10:07:54;;;;;;;1.60;1.60;;;24.70;66.50;;;;;;5065164;28;44182;-75
2022/08/23 10:10:27;;;;;;;1.50;1.50;;;24.80;66.40;;;;;;5068526;28;44021;-73
2022/08/23 10:12:59;;;;;;;1.60;1.60;;;24.90;66.60;;;;;;5085043;27;44091;-74
2022/08/23 10:15:37;;;;;;;1.80;1.80;;;25.00;65.40;;;;;;5084875;28;45326;-74
2022/08/23 10:18:07;;;;;;;1.50;1.50;;;25.00;66.00;;;;;;5079668;28;44000;-74
2022/08/23 10:20:40;;;;;;;1.50;1.50;;;25.00;65.10;;;;;;5084733;28;43893;-75
2022/08/23 10:23:16;;;;;;;1.73;1.70;;;25.00;66.20;;;;;;5065422;28;44303;-74
2022/08/23 10:25:55;;;;;;;1.50;1.50;;;24.90;65.70;;;;;;5069679;28;45390;-74
2022/08/23 10:31:24;;;;;;;1.43;1.43;;;24.80;65.40;;;;;;5065067;28;43975;-75
2022/08/23 10:33:59;;;;;;;1.47;1.47;;;24.80;66.00;;;;;;5065384;28;44205;-74
2022/08/23 10:36:31;;;;;;;1.53;1.53;;;24.70;66.10;;;;;;5066655;28;43919;-75
2022/08/23 10:39:03;;;;;;;1.60;1.60;;;24.70;65.90;;;;;;5079280;28;43434;-74
2022/08/23 10:41:43;;;;;;;1.57;1.57;;;24.70;65.80;;;;;;5083436;27;44060;-74
2022/08/23 10:44:24;;;;;;;1.40;1.40;;;24.70;66.10;;;;;;5065240;28;43841;-74
2022/08/23 10:47:00;;;;;;;1.43;1.43;;;24.70;66.40;;;;;;5077293;28;43968;-75
2022/08/23 10:49:29;;;;;;;1.40;1.40;;;24.70;66.20;;;;;;5064762;28;44079;-75
2022/08/23 10:52:00;;;;;;;1.80;1.50;;;24.80;65.80;;;;;;5079641;27;43845;-73
2022/08/23 10:54:44;;;;;;;1.40;1.40;;;25.00;65.50;;;;;;5074739;27;43906;-74
2022/08/23 10:57:19;;;;;;;1.40;1.40;;;25.00;65.30;;;;;;5068178;28;45284;-74
2022/08/23 10:59:47;;;;;;;1.40;1.40;;;25.00;65.40;;;;;;5068304;28;43813;-74
2022/08/23 11:02:19;;;;;;;1.33;1.33;;;24.90;65.60;;;;;;5069747;28;44157;-73
2022/08/23 11:05:02;;;;;;;1.30;1.30;;;24.80;65.80;;;;;;5087196;28;44019;-74
2022/08/23 11:07:34;;;;;;;1.40;1.40;;;24.80;65.60;;;;;;5087637;27;43933;-74
2022/08/23 11:10:09;;;;;;;1.40;1.40;;;24.80;65.70;;;;;;5067940;28;44442;-74
2022/08/23 11:12:56;;;;;;;1.43;1.43;;;24.80;66.80;;;;;;5068137;28;43987;-73
2022/08/23 11:15:27;;;;;;;1.40;1.40;;;24.70;66.20;;;;;;5068667;28;43652;-74
2022/08/23 11:18:04;;;;;;;1.30;1.30;;;24.70;66.10;;;;;;5078649;28;44109;-73
2022/08/23 11:20:55;;;;;;;1.30;1.30;;;24.70;66.10;;;;;;5068597;28;44545;-73
2022/08/23 11:23:43;;;;;;;2.10;1.33;;;24.70;66.40;;;;;;5068029;28;44013;-75
2022/08/23 11:26:35;;;;;;;1.40;1.40;;;24.70;66.70;;;;;;5067919;28;43958;-73
2022/08/23 11:29:29;;;;;;;1.30;1.30;;;24.80;66.50;;;;;;5068986;28;44083;-74
2022/08/23 11:32:21;;;;;;;1.47;1.47;;;24.90;66.10;;;;;;5067865;28;43468;-73
2022/08/23 11:35:02;;;;;;;1.40;1.40;;;25.00;65.50;;;;;;5079672;28;43422;-75
2022/08/23 11:37:46;;;;;;;1.50;1.40;;;25.00;65.20;;;;;;5077970;28;43497;-75
2022/08/23 11:40:16;;;;;;;2.00;1.23;;;25.00;65.20;;;;;;5082098;28;45804;-75
2022/08/23 11:42:50;;;;;;;1.30;1.30;;;25.00;65.60;;;;;;5067077;28;43788;-75
2022/08/23 11:45:28;;;;;;;1.43;1.43;;;25.00;66.50;;;;;;5067335;28;44003;-75
2022/08/23 11:48:12;;;;;;;1.50;1.50;;;24.90;65.70;;;;;;5068833;28;43366;-74
2022/08/23 11:51:00;;;;;;;1.30;1.30;;;24.80;65.60;;;;;;5068382;28;43743;-74
2022/08/23 11:53:39;;;;;;;2.67;1.40;;;24.80;66.00;;;;;;5068275;28;43893;-73
2022/08/23 11:56:27;;;;;;;1.33;1.33;;;24.80;66.10;;;;;;5068481;28;43920;-74
2022/08/23 11:59:10;;;;;;;1.30;1.30;;;24.80;66.00;;;;;;5069154;28;43933;-73
2022/08/23 12:01:39;;;;;;;1.60;1.60;;;24.70;65.90;;;;;;5068929;28;44118;-74
2022/08/23 12:04:09;;;;;;;1.37;1.33;;;24.70;66.30;;;;;;5072313;28;44498;-75
2022/08/23 12:06:45;;;;;;;1.40;1.40;;;24.70;66.40;;;;;;5075433;27;43995;-74
2022/08/23 12:09:49;;;;;;;1.43;1.43;;;24.70;66.10;;;;;;5069163;28;43871;-75
2022/08/23 12:12:29;;;;;;;1.30;1.30;;;24.70;66.10;;;;;;5069023;28;43932;-75
2022/08/23 12:15:05;;;;;;;1.40;1.40;;;24.70;66.60;;;;;;5067998;28;43939;-74
2022/08/23 12:18:12;;;;;;;1.40;1.40;;;24.70;66.70;;;;;;5067999;28;44200;-74
2022/08/23 12:20:40;;;;;;;1.40;1.40;;;24.80;66.30;;;;;;5068243;28;43943;-74
2022/08/23 12:23:17;;;;;;;1.43;1.43;;;24.90;65.90;;;;;;5067908;28;44542;-73
2022/08/23 12:25:45;;;;;;;1.47;1.47;;;25.00;65.40;;;;;;5072272;28;43944;-74
2022/08/23 12:28:35;;;;;;;1.30;1.30;;;25.00;65.90;;;;;;5082299;28;43868;-75
2022/08/23 12:31:09;;;;;;;1.50;1.50;;;25.00;65.10;;;;;;5084391;27;43951;-75
2022/08/23 12:33:46;;;;;;;1.40;1.40;;;25.00;65.60;;;;;;5068273;28;43843;-75
2022/08/23 12:36:16;;;;;;;1.70;1.70;;;24.90;65.70;;;;;;5068335;28;43956;-74
2022/08/23 12:38:52;;;;;;;2.00;1.90;;;24.90;65.50;;;;;;5068544;28;43856;-75
2022/08/23 12:41:21;;;;;;;2.10;2.00;;;24.80;65.50;;;;;;5068560;28;44001;-75
2022/08/23 12:43:57;;;;;;;2.10;2.00;;;24.80;65.90;;;;;;5067784;28;43914;-75
2022/08/23 12:46:35;;;;;;;2.27;2.17;;;24.80;66.10;;;;;;5068129;28;44139;-74
2022/08/23 12:49:05;;;;;;;2.07;1.97;;;24.80;66.00;;;;;;5068176;28;43955;-74
2022/08/23 12:51:39;;;;;;;3.10;2.67;;;24.80;66.00;;;;;;5068375;28;44060;-74
2022/08/23 12:54:15;;;;;;;2.60;2.30;;;24.70;67.00;;;;;;5072388;28;45104;-74
2022/08/23 12:56:45;;;;;;;2.83;2.63;;;24.70;66.40;;;;;;5087048;28;43978;-74
2022/08/23 12:59:30;;;;;;;2.90;2.80;;;24.70;66.20;;;;;;5075235;27;43871;-75
2022/08/23 13:01:58;;;;;;;3.07;2.90;;;24.70;66.10;;;;;;5068269;28;43875;-74
2022/08/23 13:04:28;;;;;;;3.10;2.90;;;24.70;66.40;;;;;;5082752;28;43816;-73
2022/08/23 13:06:57;;;;;;;3.67;3.20;;;24.70;66.70;;;;;;5087078;28;43984;-75
2022/08/23 13:09:26;;;;;;;3.67;3.43;;;24.70;66.50;;;;;;5077839;28;43983;-74
2022/08/23 13:11:56;;;;;;;3.43;3.13;;;24.80;66.10;;;;;;5067826;28;43904;-74
2022/08/23 13:14:25;;;;;;;3.50;3.30;;;24.90;65.60;;;;;;5082534;27;44284;-74
2022/08/23 13:16:58;;;;;;;3.50;3.20;;;25.00;65.20;;;;;;5084116;27;43805;-74
2022/08/23 13:19:29;;;;;;;3.30;3.13;;;25.10;65.10;;;;;;5067871;28;43973;-75
2022/08/23 13:22:10;;;;;;;3.10;2.97;;;25.00;65.80;;;;;;5068032;28;43987;-74
2022/08/23 13:24:39;;;;;;;3.57;3.27;;;25.00;65.40;;;;;;5079351;28;44828;-74
2022/08/23 13:27:12;;;;;;;3.40;3.20;;;25.00;65.50;;;;;;5086948;28;43988;-73
2022/08/23 13:29:49;;;;;;;3.47;3.27;;;24.90;65.50;;;;;;5087082;27;43816;-74
2022/08/23 13:32:36;;;;;;;3.97;3.57;;;24.90;65.60;;;;;;5085588;28;44283;-75